sensor_id;sensor_type;location;lat;lon;timestamp;temperature;humidity
55026;DHT22;40925;45.666;18.994;2023-07-31T00:00:15;538.30;2406.40
55026;DHT22;40925;45.666;18.994;2023-07-31T00:14:54;537.90;2406.40
55026;DHT22;40925;45.666;18.994;2023-07-31T00:17:19;537.90;2406.40
55026;DHT22;40925;45.666;18.994;2023-07-31T00:19:45;537.90;2406.40
55026;DHT22;40925;45.666;18.994;2023-07-31T00:27:04;537.70;2406.40
55026;DHT22;40925;45.666;18.994;2023-07-31T00:29:30;537.60;2406.40
55026;DHT22;40925;45.666;18.994;2023-07-31T00:31:56;512.90;2380.80
55026;DHT22;40925;45.666;18.994;2023-07-31T00:34:21;512.90;2380.80
55026;DHT22;40925;45.666;18.994;2023-07-31T00:36:49;512.80;2380.80
55026;DHT22;40925;45.666;18.994;2023-07-31T00:39:16;512.80;2380.80
55026;DHT22;40925;45.666;18.994;2023-07-31T00:44:08;537.70;2406.40
55026;DHT22;40925;45.666;18.994;2023-07-31T00:46:34;512.80;2380.80
55026;DHT22;40925;45.666;18.994;2023-07-31T00:48:59;512.80;2380.80
55026;DHT22;40925;45.666;18.994;2023-07-31T00:51:26;512.80;2380.80
55026;DHT22;40925;45.666;18.994;2023-07-31T00:53:51;512.80;2380.80
55026;DHT22;40925;45.666;18.994;2023-07-31T00:56:19;512.80;2380.80
55026;DHT22;40925;45.666;18.994;2023-07-31T00:58:45;512.80;2380.80
55026;DHT22;40925;45.666;18.994;2023-07-31T01:01:11;512.80;2380.80
55026;DHT22;40925;45.666;18.994;2023-07-31T01:03:37;512.80;2380.80
55026;DHT22;40925;45.666;18.994;2023-07-31T01:06:20;512.80;2380.80
55026;DHT22;40925;45.666;18.994;2023-07-31T01:09:04;512.80;2380.80
55026;DHT22;40925;45.666;18.994;2023-07-31T01:11:35;512.90;2380.80
55026;DHT22;40925;45.666;18.994;2023-07-31T01:14:04;512.90;2380.80
55026;DHT22;40925;45.666;18.994;2023-07-31T01:16:30;537.60;2406.40
55026;DHT22;40925;45.666;18.994;2023-07-31T01:18:55;512.80;2380.80
55026;DHT22;40925;45.666;18.994;2023-07-31T01:26:37;512.90;2380.80
55026;DHT22;40925;45.666;18.994;2023-07-31T01:29:12;512.90;2380.80
55026;DHT22;40925;45.666;18.994;2023-07-31T01:31:42;512.90;2380.80
55026;DHT22;40925;45.666;18.994;2023-07-31T01:34:10;512.80;2380.80
55026;DHT22;40925;45.666;18.994;2023-07-31T01:36:36;512.80;2380.80
55026;DHT22;40925;45.666;18.994;2023-07-31T01:39:02;512.80;2380.80
55026;DHT22;40925;45.666;18.994;2023-07-31T01:41:29;512.70;2380.80
55026;DHT22;40925;45.666;18.994;2023-07-31T01:43:55;512.80;2380.80
55026;DHT22;40925;45.666;18.994;2023-07-31T01:46:20;512.50;2380.80
55026;DHT22;40925;45.666;18.994;2023-07-31T01:48:46;512.70;2380.80
55026;DHT22;40925;45.666;18.994;2023-07-31T01:51:12;512.30;2380.80
55026;DHT22;40925;45.666;18.994;2023-07-31T02:42:27;512.50;2380.80
55026;DHT22;40925;45.666;18.994;2023-07-31T02:47:22;512.40;2380.80
55026;DHT22;40925;45.666;18.994;2023-07-31T02:49:48;512.00;2380.80
55026;DHT22;40925;45.666;18.994;2023-07-31T04:22:21;512.70;2380.80
55026;DHT22;40925;45.666;18.994;2023-07-31T04:24:47;512.40;2380.80
55026;DHT22;40925;45.666;18.994;2023-07-31T04:27:13;512.40;2380.80
55026;DHT22;40925;45.666;18.994;2023-07-31T04:29:38;512.40;2380.80
55026;DHT22;40925;45.666;18.994;2023-07-31T04:32:05;512.60;2124.80
55026;DHT22;40925;45.666;18.994;2023-07-31T04:34:31;537.60;2406.40
55026;DHT22;40925;45.666;18.994;2023-07-31T04:36:57;537.60;2406.40
55026;DHT22;40925;45.666;18.994;2023-07-31T05:01:17;538.50;2406.40
55026;DHT22;40925;45.666;18.994;2023-07-31T05:03:42;538.40;2406.40
55026;DHT22;40925;45.666;18.994;2023-07-31T05:25:44;564.10;2432.00
55026;DHT22;40925;45.666;18.994;2023-07-31T05:28:12;563.90;2432.00
55026;DHT22;40925;45.666;18.994;2023-07-31T05:30:37;564.00;2432.00
55026;DHT22;40925;45.666;18.994;2023-07-31T05:33:03;589.00;2432.00
55026;DHT22;40925;45.666;18.994;2023-07-31T05:35:29;589.00;2432.00
55026;DHT22;40925;45.666;18.994;2023-07-31T05:37:55;588.90;2432.00
55026;DHT22;40925;45.666;18.994;2023-07-31T05:40:21;589.00;2432.00
55026;DHT22;40925;45.666;18.994;2023-07-31T05:42:46;589.20;2432.00
55026;DHT22;40925;45.666;18.994;2023-07-31T05:45:12;589.20;2432.00
55026;DHT22;40925;45.666;18.994;2023-07-31T05:50:05;589.70;2432.00
55026;DHT22;40925;45.666;18.994;2023-07-31T05:52:31;589.60;2432.00
55026;DHT22;40925;45.666;18.994;2023-07-31T05:54:57;614.50;2432.00
55026;DHT22;40925;45.666;18.994;2023-07-31T05:57:22;589.70;2432.00
55026;DHT22;40925;45.666;18.994;2023-07-31T05:59:48;589.70;2432.00
55026;DHT22;40925;45.666;18.994;2023-07-31T06:02:14;614.70;2432.00
55026;DHT22;40925;45.666;18.994;2023-07-31T06:04:40;614.40;2432.00
55026;DHT22;40925;45.666;18.994;2023-07-31T06:07:05;614.50;2432.00
55026;DHT22;40925;45.666;18.994;2023-07-31T06:09:31;614.40;2432.00
55026;DHT22;40925;45.666;18.994;2023-07-31T06:11:57;589.70;2432.00
55026;DHT22;40925;45.666;18.994;2023-07-31T06:14:24;614.50;2432.00
55026;DHT22;40925;45.666;18.994;2023-07-31T06:16:49;614.60;2432.00
55026;DHT22;40925;45.666;18.994;2023-07-31T06:19:15;614.60;2432.00
55026;DHT22;40925;45.666;18.994;2023-07-31T06:21:41;614.70;2432.00
55026;DHT22;40925;45.666;18.994;2023-07-31T06:24:09;615.20;2432.00
55026;DHT22;40925;45.666;18.994;2023-07-31T06:26:35;615.00;2432.00
55026;DHT22;40925;45.666;18.994;2023-07-31T06:29:01;615.00;2432.00
55026;DHT22;40925;45.666;18.994;2023-07-31T06:31:27;615.00;2432.00
55026;DHT22;40925;45.666;18.994;2023-07-31T06:33:53;614.90;2432.00
55026;DHT22;40925;45.666;18.994;2023-07-31T06:36:19;615.00;2432.00
55026;DHT22;40925;45.666;18.994;2023-07-31T06:38:45;615.00;2432.00
55026;DHT22;40925;45.666;18.994;2023-07-31T06:41:11;614.90;2432.00
55026;DHT22;40925;45.666;18.994;2023-07-31T06:43:37;615.00;2432.00
55026;DHT22;40925;45.666;18.994;2023-07-31T06:46:06;615.00;2432.00
55026;DHT22;40925;45.666;18.994;2023-07-31T06:48:33;615.10;2432.00
55026;DHT22;40925;45.666;18.994;2023-07-31T06:58:18;640.70;2432.00
55026;DHT22;40925;45.666;18.994;2023-07-31T07:00:44;640.50;2432.00
55026;DHT22;40925;45.666;18.994;2023-07-31T07:03:12;640.60;2432.00
55026;DHT22;40925;45.666;18.994;2023-07-31T07:05:40;640.60;2432.00
55026;DHT22;40925;45.666;18.994;2023-07-31T07:08:06;640.80;2432.00
55026;DHT22;40925;45.666;18.994;2023-07-31T07:10:32;665.60;2432.00
55026;DHT22;40925;45.666;18.994;2023-07-31T07:20:16;666.10;2329.60
55026;DHT22;40925;45.666;18.994;2023-07-31T07:22:42;665.80;2355.20
55026;DHT22;40925;45.666;18.994;2023-07-31T07:25:14;666.10;2278.40
55026;DHT22;40925;45.666;18.994;2023-07-31T07:30:06;666.40;2278.40
55026;DHT22;40925;45.666;18.994;2023-07-31T07:32:32;666.40;2278.40
55026;DHT22;40925;45.666;18.994;2023-07-31T07:34:58;666.40;2278.40
55026;DHT22;40925;45.666;18.994;2023-07-31T07:37:24;666.50;2252.80
55026;DHT22;40925;45.666;18.994;2023-07-31T07:39:50;666.40;2176.00
55026;DHT22;40925;45.666;18.994;2023-07-31T07:42:16;666.50;2176.00
55026;DHT22;40925;45.666;18.994;2023-07-31T07:44:42;666.20;2150.40
55026;DHT22;40925;45.666;18.994;2023-07-31T07:47:08;666.40;2150.40
55026;DHT22;40925;45.666;18.994;2023-07-31T07:49:34;666.40;2150.40
55026;DHT22;40925;45.666;18.994;2023-07-31T07:52:04;691.30;2124.80
55026;DHT22;40925;45.666;18.994;2023-07-31T08:14:03;716.90;1996.80
55026;DHT22;40925;45.666;18.994;2023-07-31T08:16:29;692.10;1996.80
55026;DHT22;40925;45.666;18.994;2023-07-31T08:18:55;716.80;2048.00
55026;DHT22;40925;45.666;18.994;2023-07-31T08:21:24;717.10;1945.60
55026;DHT22;40925;45.666;18.994;2023-07-31T08:23:50;716.90;1971.20
55026;DHT22;40925;45.666;18.994;2023-07-31T08:43:25;717.70;1868.80
55026;DHT22;40925;45.666;18.994;2023-07-31T08:45:52;717.60;1868.80
55026;DHT22;40925;45.666;18.994;2023-07-31T08:48:20;717.50;1843.20
55026;DHT22;40925;45.666;18.994;2023-07-31T08:50:46;717.70;1843.20
55026;DHT22;40925;45.666;18.994;2023-07-31T08:53:15;742.60;1894.40
55026;DHT22;40925;45.666;18.994;2023-07-31T09:10:23;742.80;1792.00
55026;DHT22;40925;45.666;18.994;2023-07-31T09:12:51;742.70;1817.60
55026;DHT22;40925;45.666;18.994;2023-07-31T10:20:32;794.10;1587.20
55026;DHT22;40925;45.666;18.994;2023-07-31T10:22:58;794.40;1587.20
55026;DHT22;40925;45.666;18.994;2023-07-31T10:25:26;793.60;1561.60
55026;DHT22;40925;45.666;18.994;2023-07-31T10:27:53;793.70;1587.20
55026;DHT22;40925;45.666;18.994;2023-07-31T10:30:24;793.90;1587.20
55026;DHT22;40925;45.666;18.994;2023-07-31T10:32:53;793.90;1587.20
55026;DHT22;40925;45.666;18.994;2023-07-31T10:35:20;793.60;1561.60
55026;DHT22;40925;45.666;18.994;2023-07-31T10:37:48;793.70;1587.20
55026;DHT22;40925;45.666;18.994;2023-07-31T10:40:40;768.60;1587.20
55026;DHT22;40925;45.666;18.994;2023-07-31T10:43:06;793.80;1536.00
55026;DHT22;40925;45.666;18.994;2023-07-31T10:45:34;794.00;1536.00
55026;DHT22;40925;45.666;18.994;2023-07-31T10:48:07;793.80;1536.00
55026;DHT22;40925;45.666;18.994;2023-07-31T10:50:40;793.90;1536.00
55026;DHT22;40925;45.666;18.994;2023-07-31T10:53:22;794.00;1536.00
55026;DHT22;40925;45.666;18.994;2023-07-31T12:02:34;845.10;1382.40
55026;DHT22;40925;45.666;18.994;2023-07-31T12:05:00;845.10;1382.40
55026;DHT22;40925;45.666;18.994;2023-07-31T16:56:19;717.60;1587.20
55026;DHT22;40925;45.666;18.994;2023-07-31T17:42:36;717.20;1689.60
55026;DHT22;40925;45.666;18.994;2023-07-31T17:45:01;716.90;1715.20
55026;DHT22;40925;45.666;18.994;2023-07-31T17:47:28;716.80;1740.80
55026;DHT22;40925;45.666;18.994;2023-07-31T17:49:53;692.10;1715.20
55026;DHT22;40925;45.666;18.994;2023-07-31T17:52:19;692.00;1715.20
55026;DHT22;40925;45.666;18.994;2023-07-31T17:54:45;692.00;1715.20
55026;DHT22;40925;45.666;18.994;2023-07-31T17:57:14;692.10;1715.20
55026;DHT22;40925;45.666;18.994;2023-07-31T17:59:39;692.00;1740.80
55026;DHT22;40925;45.666;18.994;2023-07-31T18:02:05;692.00;1740.80
55026;DHT22;40925;45.666;18.994;2023-07-31T18:04:31;691.90;1740.80
55026;DHT22;40925;45.666;18.994;2023-07-31T18:06:57;691.90;1740.80
55026;DHT22;40925;45.666;18.994;2023-07-31T18:09:22;691.80;1740.80
55026;DHT22;40925;45.666;18.994;2023-07-31T18:11:48;691.70;1766.40
55026;DHT22;40925;45.666;18.994;2023-07-31T18:14:14;691.60;1792.00
55026;DHT22;40925;45.666;18.994;2023-07-31T18:16:39;691.60;1792.00
55026;DHT22;40925;45.666;18.994;2023-07-31T18:19:05;691.50;1792.00
55026;DHT22;40925;45.666;18.994;2023-07-31T18:21:32;691.60;1792.00
55026;DHT22;40925;45.666;18.994;2023-07-31T18:24:01;691.50;1817.60
55026;DHT22;40925;45.666;18.994;2023-07-31T18:26:26;691.30;1843.20
55026;DHT22;40925;45.666;18.994;2023-07-31T18:28:52;691.30;1843.20
55026;DHT22;40925;45.666;18.994;2023-07-31T18:31:18;666.40;1843.20
55026;DHT22;40925;45.666;18.994;2023-07-31T18:33:44;691.20;1868.80
55026;DHT22;40925;45.666;18.994;2023-07-31T18:36:10;666.50;1894.40
55026;DHT22;40925;45.666;18.994;2023-07-31T18:38:36;666.50;1894.40
55026;DHT22;40925;45.666;18.994;2023-07-31T18:41:05;666.40;1894.40
55026;DHT22;40925;45.666;18.994;2023-07-31T18:43:30;666.40;1920.00
55026;DHT22;40925;45.666;18.994;2023-07-31T18:45:56;666.40;1920.00
55026;DHT22;40925;45.666;18.994;2023-07-31T18:48:22;666.20;1920.00
55026;DHT22;40925;45.666;18.994;2023-07-31T18:50:48;666.20;1920.00
55026;DHT22;40925;45.666;18.994;2023-07-31T18:53:16;666.00;1920.00
55026;DHT22;40925;45.666;18.994;2023-07-31T18:55:43;666.20;1945.60
55026;DHT22;40925;45.666;18.994;2023-07-31T18:58:09;666.10;1945.60
55026;DHT22;40925;45.666;18.994;2023-07-31T19:00:35;665.90;1945.60
55026;DHT22;40925;45.666;18.994;2023-07-31T19:03:01;666.00;1945.60
55026;DHT22;40925;45.666;18.994;2023-07-31T19:05:27;665.80;1971.20
55026;DHT22;40925;45.666;18.994;2023-07-31T19:07:53;665.80;1971.20
55026;DHT22;40925;45.666;18.994;2023-07-31T19:10:19;665.80;1996.80
55026;DHT22;40925;45.666;18.994;2023-07-31T19:12:44;665.80;2022.40
55026;DHT22;40925;45.666;18.994;2023-07-31T19:15:10;665.60;2022.40
55026;DHT22;40925;45.666;18.994;2023-07-31T19:17:37;665.80;2022.40
55026;DHT22;40925;45.666;18.994;2023-07-31T19:20:04;665.60;2048.00
55026;DHT22;40925;45.666;18.994;2023-07-31T19:22:31;640.90;2048.00
55026;DHT22;40925;45.666;18.994;2023-07-31T19:24:57;640.80;2048.00
55026;DHT22;40925;45.666;18.994;2023-07-31T19:27:22;640.60;2048.00
55026;DHT22;40925;45.666;18.994;2023-07-31T19:29:48;640.60;2048.00
55026;DHT22;40925;45.666;18.994;2023-07-31T19:32:14;640.60;2048.00
55026;DHT22;40925;45.666;18.994;2023-07-31T19:34:40;640.60;2048.00
55026;DHT22;40925;45.666;18.994;2023-07-31T19:37:06;640.70;2073.60
55026;DHT22;40925;45.666;18.994;2023-07-31T19:39:32;640.50;2099.20
55026;DHT22;40925;45.666;18.994;2023-07-31T19:44:25;640.30;2252.80
55026;DHT22;40925;45.666;18.994;2023-07-31T19:46:51;615.00;2355.20
55026;DHT22;40925;45.666;18.994;2023-07-31T19:51:43;564.10;2432.00
55026;DHT22;40925;45.666;18.994;2023-07-31T20:16:06;563.70;2432.00
55026;DHT22;40925;45.666;18.994;2023-07-31T20:18:32;563.50;2432.00
55026;DHT22;40925;45.666;18.994;2023-07-31T20:20:58;563.70;2432.00
55026;DHT22;40925;45.666;18.994;2023-07-31T20:23:23;588.80;2432.00
55026;DHT22;40925;45.666;18.994;2023-07-31T20:25:49;564.00;2432.00
55026;DHT22;40925;45.666;18.994;2023-07-31T20:28:15;563.80;2432.00
55026;DHT22;40925;45.666;18.994;2023-07-31T20:30:42;563.80;2432.00
55026;DHT22;40925;45.666;18.994;2023-07-31T20:33:08;563.60;2432.00
55026;DHT22;40925;45.666;18.994;2023-07-31T20:38:03;564.10;2432.00
55026;DHT22;40925;45.666;18.994;2023-07-31T20:40:29;563.80;2432.00
55026;DHT22;40925;45.666;18.994;2023-07-31T20:42:56;563.80;2432.00
55026;DHT22;40925;45.666;18.994;2023-07-31T20:45:24;563.70;2432.00
55026;DHT22;40925;45.666;18.994;2023-07-31T20:47:50;563.60;2432.00
55026;DHT22;40925;45.666;18.994;2023-07-31T20:50:16;563.50;2432.00
55026;DHT22;40925;45.666;18.994;2023-07-31T20:57:34;538.50;2406.40
55026;DHT22;40925;45.666;18.994;2023-07-31T20:59:59;538.30;2406.40
55026;DHT22;40925;45.666;18.994;2023-07-31T21:07:17;538.50;2406.40
55026;DHT22;40925;45.666;18.994;2023-07-31T21:09:43;538.40;2406.40
55026;DHT22;40925;45.666;18.994;2023-07-31T21:12:10;563.20;2432.00
55026;DHT22;40925;45.666;18.994;2023-07-31T21:14:36;538.50;2406.40
55026;DHT22;40925;45.666;18.994;2023-07-31T21:17:02;538.40;2406.40
55026;DHT22;40925;45.666;18.994;2023-07-31T21:19:27;538.30;2406.40
55026;DHT22;40925;45.666;18.994;2023-07-31T21:21:53;538.30;2406.40
55026;DHT22;40925;45.666;18.994;2023-07-31T21:24:19;538.10;2406.40
55026;DHT22;40925;45.666;18.994;2023-07-31T21:26:44;538.20;2406.40
55026;DHT22;40925;45.666;18.994;2023-07-31T21:29:10;538.20;2406.40
55026;DHT22;40925;45.666;18.994;2023-07-31T21:31:36;538.20;2406.40
55026;DHT22;40925;45.666;18.994;2023-07-31T21:34:02;538.00;2406.40
55026;DHT22;40925;45.666;18.994;2023-07-31T21:36:28;537.90;2406.40
55026;DHT22;40925;45.666;18.994;2023-07-31T21:38:54;537.90;2406.40
55026;DHT22;40925;45.666;18.994;2023-07-31T21:43:46;512.80;2380.80
55026;DHT22;40925;45.666;18.994;2023-07-31T21:46:11;512.70;2380.80
55026;DHT22;40925;45.666;18.994;2023-07-31T21:48:37;512.60;2073.60
55026;DHT22;40925;45.666;18.994;2023-07-31T21:51:03;512.40;2380.80
55026;DHT22;40925;45.666;18.994;2023-07-31T21:53:29;512.50;2355.20
55026;DHT22;40925;45.666;18.994;2023-07-31T21:55:55;512.50;2380.80
55026;DHT22;40925;45.666;18.994;2023-07-31T21:58:20;512.40;2380.80
55026;DHT22;40925;45.666;18.994;2023-07-31T22:00:46;512.30;2380.80
55026;DHT22;40925;45.666;18.994;2023-07-31T22:03:12;512.30;2380.80
55026;DHT22;40925;45.666;18.994;2023-07-31T22:05:37;512.30;2380.80
55026;DHT22;40925;45.666;18.994;2023-07-31T22:08:03;512.40;2380.80
55026;DHT22;40925;45.666;18.994;2023-07-31T22:10:29;512.20;2380.80
55026;DHT22;40925;45.666;18.994;2023-07-31T22:12:54;512.30;2124.80
55026;DHT22;40925;45.666;18.994;2023-07-31T22:15:20;512.30;2380.80
55026;DHT22;40925;45.666;18.994;2023-07-31T22:17:46;512.30;2099.20
55026;DHT22;40925;45.666;18.994;2023-07-31T22:20:13;512.00;2380.80
55026;DHT22;40925;45.666;18.994;2023-07-31T22:22:39;487.30;2380.80
55026;DHT22;40925;45.666;18.994;2023-07-31T22:44:36;512.50;2380.80
55026;DHT22;40925;45.666;18.994;2023-07-31T22:47:02;512.20;2380.80
55026;DHT22;40925;45.666;18.994;2023-07-31T22:49:29;512.20;2380.80
55026;DHT22;40925;45.666;18.994;2023-07-31T22:51:54;512.30;2380.80
55026;DHT22;40925;45.666;18.994;2023-07-31T22:54:20;512.20;2380.80
55026;DHT22;40925;45.666;18.994;2023-07-31T22:56:46;487.30;2380.80
55026;DHT22;40925;45.666;18.994;2023-07-31T22:59:12;487.00;2380.80
55026;DHT22;40925;45.666;18.994;2023-07-31T23:16:18;512.10;2380.80
55026;DHT22;40925;45.666;18.994;2023-07-31T23:18:44;487.30;2380.80
55026;DHT22;40925;45.666;18.994;2023-07-31T23:21:10;487.30;2380.80
55026;DHT22;40925;45.666;18.994;2023-07-31T23:23:36;512.20;2380.80
55026;DHT22;40925;45.666;18.994;2023-07-31T23:26:02;487.30;2380.80
55026;DHT22;40925;45.666;18.994;2023-07-31T23:28:28;487.30;2380.80
55026;DHT22;40925;45.666;18.994;2023-07-31T23:31:03;487.20;2380.80
55026;DHT22;40925;45.666;18.994;2023-07-31T23:33:32;487.10;2380.80
55026;DHT22;40925;45.666;18.994;2023-07-31T23:36:09;486.90;2380.80
55026;DHT22;40925;45.666;18.994;2023-07-31T23:58:07;486.80;2380.80
